SBGO/GYN METAR and TAF weather

Enter ICAO airport designator
Station Type Date Time Source
SBGO METAR 2021/09/24 00:00 UTC NOAA

SBGO 240000Z 13005KT CAVOK 30/11 Q1014


Station Type Date Time Source
SBGO Decoded METAR 2021/09/24 00:00 UTC NOAA

Goiania Aeroporto , Brazil (SBGO) 16-38S 049-13W
Sep 23, 2021 - 08:00 PM EDT / 2021.09.24 0000 UTC
Wind: from the SE (130 degrees) at 6 MPH (5 KT):0
Visibility: greater than 7 mile(s):0
Temperature: 86 F (30 C)
Dew Point: 51 F (11 C)
Relative Humidity: 30%
Pressure (altimeter): 29.94 in. Hg (1014 hPa)
ob: SBGO 240000Z 13005KT CAVOK 30/11 Q1014
cycle: 0

Station Type Date Time Source
SBGO TAF 2021/09/23 18:15 UTC NOAA

TAF SBGO 231600Z 2318/2418 12008KT 8000 NSC TN23/2409Z TX36/2417Z PROB40
TEMPO 2321/2404 VCTS SCT030 FEW040CB
BECMG 2410/2412 05008KT PROB30 2415/2418 35005KT FEW040
RMK PGH

Example: see airport list